Time;durP1;ratioP1;P1;durP2;ratioP2;P2;SDS_P1;SDS_P2;PMS_P1;PMS_P2;Temp;Humidity;BMP_temperature;BMP_pressure;BME280_temperature;BME280_humidity;BME280_pressure;Samples;Min_cycle;Max_cycle;Signal;HPM_P1;HPM_P2
2022/08/12 00:43:21;;;;;;;10.47;4.87;;;;;;;;;;5095504;28;20523;-73
2022/08/12 00:48:33;;;;;;;5.40;4.00;;;;;;;;;;5095828;28;20465;-73
2022/08/12 00:51:02;;;;;;;4.30;3.43;;;;;;;;;;5095834;28;20469;-73
2022/08/12 00:53:29;;;;;;;6.07;4.00;;;;;;;;;;5095290;28;20470;-73
2022/08/12 00:55:57;;;;;;;6.23;3.70;;;;;;;;;;5095664;28;20447;-73
2022/08/12 00:58:27;;;;;;;5.80;4.17;;;;;;;;;;5095749;28;20435;-73
2022/08/12 01:00:58;;;;;;;8.67;4.53;;;;;;;;;;5095416;28;20458;-73
2022/08/12 01:03:26;;;;;;;13.00;6.07;;;;;;;;;;5095282;28;20471;-73
2022/08/12 01:11:29;;;;;;;11.90;5.00;;;;;;;;;;5069199;28;20431;-74
2022/08/12 01:13:57;;;;;;;10.13;4.90;;;;;;;;;;5095351;28;21041;-74
2022/08/12 01:16:24;;;;;;;11.10;5.67;;;;;;;;;;5094766;28;20510;-74
2022/08/12 01:18:52;;;;;;;13.60;4.50;;;;;;;;;;5095440;28;20453;-74
2022/08/12 01:21:25;;;;;;;16.53;5.53;;;;;;;;;;5095030;28;20454;-74
2022/08/12 01:24:01;;;;;;;13.03;5.10;;;;;;;;;;5095285;28;20474;-74
2022/08/12 01:26:32;;;;;;;15.83;6.73;;;;;;;;;;5094985;28;20441;-74
2022/08/12 01:29:00;;;;;;;10.60;4.90;;;;;;;;;;5095025;28;20861;-74
2022/08/12 01:31:28;;;;;;;14.00;5.13;;;;;;;;;;5095054;28;20974;-74
2022/08/12 01:34:02;;;;;;;8.20;4.90;;;;;;;;;;5094659;28;20475;-74
2022/08/12 01:36:34;;;;;;;9.50;4.90;;;;;;;;;;5094999;28;20435;-74
2022/08/12 01:39:01;;;;;;;5.90;4.10;;;;;;;;;;5095014;28;20904;-73
2022/08/12 01:41:31;;;;;;;7.87;3.83;;;;;;;;;;5094959;28;20450;-73
2022/08/12 01:44:01;;;;;;;5.17;4.67;;;;;;;;;;5094307;28;20482;-73
2022/08/12 01:46:36;;;;;;;5.13;3.60;;;;;;;;;;5094354;28;20455;-73
2022/08/12 01:49:07;;;;;;;4.50;3.30;;;;;;;;;;5094656;28;20464;-73
2022/08/12 01:51:39;;;;;;;5.27;3.40;;;;;;;;;;5094501;28;20463;-73
2022/08/12 01:54:08;;;;;;;7.90;3.10;;;;;;;;;;5094110;28;21022;-73
2022/08/12 01:56:42;;;;;;;3.60;3.27;;;;;;;;;;5093975;28;20451;-73
2022/08/12 02:01:54;;;;;;;6.53;2.90;;;;;;;;;;5083392;28;21045;-73
2022/08/12 02:12:53;;;;;;;3.83;3.20;;;;;;;;;;5094110;28;20442;-73
2022/08/12 02:15:25;;;;;;;6.00;3.60;;;;;;;;;;5093729;28;20458;-73
2022/08/12 02:18:07;;;;;;;6.60;3.80;;;;;;;;;;5094322;28;20928;-73
2022/08/12 02:20:38;;;;;;;11.50;3.80;;;;;;;;;;5093881;28;20451;-73
2022/08/12 02:23:07;;;;;;;4.60;3.60;;;;;;;;;;5093944;28;20474;-73
2022/08/12 02:25:37;;;;;;;6.60;4.00;;;;;;;;;;5093808;28;20817;-73
2022/08/12 02:28:06;;;;;;;4.03;3.40;;;;;;;;;;5093049;28;20498;-73
2022/08/12 02:30:35;;;;;;;4.97;3.40;;;;;;;;;;5093961;28;20461;-73
2022/08/12 02:33:03;;;;;;;7.83;3.67;;;;;;;;;;5093837;28;20882;-73
2022/08/12 02:35:31;;;;;;;6.27;3.30;;;;;;;;;;5093719;28;20446;-73
2022/08/12 02:37:59;;;;;;;5.33;3.20;;;;;;;;;;5093718;28;20864;-73
2022/08/12 02:40:27;;;;;;;12.83;3.87;;;;;;;;;;5093745;28;20430;-73
2022/08/12 02:42:56;;;;;;;6.50;3.30;;;;;;;;;;5093371;28;20479;-73
2022/08/12 02:45:27;;;;;;;5.77;3.80;;;;;;;;;;5093443;28;20451;-73
2022/08/12 02:47:57;;;;;;;5.07;3.63;;;;;;;;;;5093502;28;20482;-73
2022/08/12 02:50:26;;;;;;;4.33;3.10;;;;;;;;;;5093362;28;20454;-74
2022/08/12 02:52:55;;;;;;;3.60;2.80;;;;;;;;;;5093497;28;20483;-74
2022/08/12 02:55:26;;;;;;;6.83;3.13;;;;;;;;;;5092773;28;20892;-74
2022/08/12 02:57:53;;;;;;;5.53;3.27;;;;;;;;;;5093286;28;20541;-73
2022/08/12 03:00:21;;;;;;;11.30;3.30;;;;;;;;;;5093290;28;20435;-73
2022/08/12 03:02:52;;;;;;;7.53;3.33;;;;;;;;;;5093417;28;20831;-73
2022/08/12 03:05:23;;;;;;;3.73;2.73;;;;;;;;;;5093016;28;20457;-73
2022/08/12 03:07:53;;;;;;;3.83;3.53;;;;;;;;;;5093286;28;20573;-73
2022/08/12 03:10:23;;;;;;;4.00;3.27;;;;;;;;;;5093217;28;20455;-73
2022/08/12 03:12:52;;;;;;;4.20;3.40;;;;;;;;;;5093116;28;20540;-74
2022/08/12 03:15:21;;;;;;;4.33;3.20;;;;;;;;;;5093045;28;20455;-73
2022/08/12 03:17:51;;;;;;;4.83;3.30;;;;;;;;;;5092999;28;20446;-74
2022/08/12 03:20:21;;;;;;;4.17;3.63;;;;;;;;;;5092872;28;20545;-74
2022/08/12 03:22:49;;;;;;;3.93;3.60;;;;;;;;;;5092948;28;20471;-74
2022/08/12 03:25:17;;;;;;;4.77;4.10;;;;;;;;;;5092884;28;20451;-73
2022/08/12 03:27:50;;;;;;;5.70;3.90;;;;;;;;;;5092493;28;20490;-74
2022/08/12 03:30:18;;;;;;;4.17;3.63;;;;;;;;;;5091721;28;20460;-74
2022/08/12 03:32:47;;;;;;;6.30;3.60;;;;;;;;;;5092867;28;20831;-74
2022/08/12 03:35:18;;;;;;;5.23;4.10;;;;;;;;;;5092613;28;20457;-74
2022/08/12 03:37:45;;;;;;;5.37;3.60;;;;;;;;;;5092764;28;20443;-73
2022/08/12 03:41:32;;;;;;;4.07;3.60;;;;;;;;;;5094809;28;20459;-73
2022/08/12 04:02:19;;;;;;;5.17;4.10;;;;;;;;;;5096471;28;20474;-73
2022/08/12 04:04:46;;;;;;;11.10;4.57;;;;;;;;;;5096272;28;20449;-73
2022/08/12 04:07:15;;;;;;;5.37;4.40;;;;;;;;;;5096433;28;20809;-73
2022/08/12 04:09:43;;;;;;;5.10;4.40;;;;;;;;;;5096394;28;20470;-73
2022/08/12 04:14:57;;;;;;;5.60;3.87;;;;;;;;;;5096234;28;20445;-74
2022/08/12 04:17:26;;;;;;;6.47;4.10;;;;;;;;;;5096237;28;20447;-74
2022/08/12 04:19:55;;;;;;;6.17;3.87;;;;;;;;;;5096227;28;20454;-74
2022/08/12 04:22:28;;;;;;;6.50;4.13;;;;;;;;;;5095870;28;20485;-74
2022/08/12 04:24:57;;;;;;;8.60;4.93;;;;;;;;;;5095817;28;20453;-74
2022/08/12 04:27:24;;;;;;;5.80;4.47;;;;;;;;;;5096023;28;21023;-74
2022/08/12 04:29:52;;;;;;;8.93;4.90;;;;;;;;;;5096150;28;20454;-74
2022/08/12 04:32:19;;;;;;;5.97;4.57;;;;;;;;;;5096158;28;20858;-74
2022/08/12 04:34:46;;;;;;;6.30;4.60;;;;;;;;;;5095910;28;20454;-74
2022/08/12 04:37:14;;;;;;;5.50;4.50;;;;;;;;;;5095874;28;20469;-73
2022/08/12 04:39:44;;;;;;;8.33;4.53;;;;;;;;;;5095737;28;20450;-73
2022/08/12 04:42:11;;;;;;;5.60;4.33;;;;;;;;;;5096019;28;20800;-73
2022/08/12 04:44:39;;;;;;;6.77;3.30;;;;;;;;;;5095365;28;20474;-74
2022/08/12 04:47:06;;;;;;;11.97;4.63;;;;;;;;;;5095794;28;20442;-74
2022/08/12 04:49:34;;;;;;;7.60;4.50;;;;;;;;;;5095498;28;20991;-74
2022/08/12 04:52:01;;;;;;;18.07;3.97;;;;;;;;;;5094444;28;20446;-74
2022/08/12 04:54:28;;;;;;;4.43;3.80;;;;;;;;;;5095317;28;20506;-74
2022/08/12 04:56:57;;;;;;;8.60;4.30;;;;;;;;;;5095158;28;20457;-74
2022/08/12 04:59:24;;;;;;;13.40;3.90;;;;;;;;;;5095520;28;20443;-74
2022/08/12 05:01:52;;;;;;;3.97;3.47;;;;;;;;;;5095555;28;20447;-74
2022/08/12 05:04:19;;;;;;;5.60;3.53;;;;;;;;;;5095036;28;20478;-74
2022/08/12 05:06:46;;;;;;;5.20;4.03;;;;;;;;;;5095384;28;20928;-74
2022/08/12 05:09:14;;;;;;;7.67;3.77;;;;;;;;;;5095304;28;20494;-74
2022/08/12 05:11:41;;;;;;;3.60;3.20;;;;;;;;;;5095300;28;20458;-74
2022/08/12 05:14:12;;;;;;;5.63;2.80;;;;;;;;;;5095028;28;20612;-74
2022/08/12 05:16:39;;;;;;;3.50;2.70;;;;;;;;;;5095057;28;20458;-74
2022/08/12 05:19:06;;;;;;;2.50;2.30;;;;;;;;;;5094965;28;20504;-74
2022/08/12 05:21:33;;;;;;;3.70;2.63;;;;;;;;;;5094964;28;20447;-74
2022/08/12 05:24:00;;;;;;;5.83;3.50;;;;;;;;;;5094721;28;20474;-74
2022/08/12 05:26:28;;;;;;;6.93;3.30;;;;;;;;;;5094802;28;20455;-74
2022/08/12 05:28:55;;;;;;;4.03;3.10;;;;;;;;;;5094767;28;20482;-74
2022/08/12 05:31:23;;;;;;;6.17;3.47;;;;;;;;;;5095004;28;20455;-74
2022/08/12 05:33:50;;;;;;;5.03;3.50;;;;;;;;;;5094444;28;20473;-74
2022/08/12 05:36:18;;;;;;;7.23;3.27;;;;;;;;;;5094676;28;20454;-74
2022/08/12 05:38:59;;;;;;;7.70;4.67;;;;;;;;;;5094731;28;20549;-74
2022/08/12 05:41:27;;;;;;;5.53;3.20;;;;;;;;;;5094513;28;20457;-74
2022/08/12 05:43:55;;;;;;;4.13;3.30;;;;;;;;;;5094201;28;20983;-74
2022/08/12 05:46:24;;;;;;;5.13;2.63;;;;;;;;;;5094443;28;20451;-74
2022/08/12 05:48:53;;;;;;;5.13;3.20;;;;;;;;;;5094399;28;20512;-74
2022/08/12 05:51:22;;;;;;;5.53;3.30;;;;;;;;;;5094448;28;20447;-74
2022/08/12 05:53:50;;;;;;;6.80;3.60;;;;;;;;;;5094139;28;20470;-75
2022/08/12 05:56:21;;;;;;;5.10;2.93;;;;;;;;;;5093720;28;20439;-74
2022/08/12 05:58:48;;;;;;;6.63;4.17;;;;;;;;;;5094268;28;20443;-74
2022/08/12 06:01:15;;;;;;;6.77;3.27;;;;;;;;;;5094210;28;20843;-74
2022/08/12 06:03:44;;;;;;;5.80;3.27;;;;;;;;;;5093885;28;20475;-74
2022/08/12 06:06:11;;;;;;;4.27;3.00;;;;;;;;;;5093964;28;20459;-74
2022/08/12 06:08:39;;;;;;;5.47;3.80;;;;;;;;;;5093882;28;20881;-74
2022/08/12 06:11:07;;;;;;;5.60;3.33;;;;;;;;;;5093956;28;20455;-74
2022/08/12 06:13:38;;;;;;;4.50;3.40;;;;;;;;;;5093738;28;20475;-74
2022/08/12 06:16:06;;;;;;;4.30;2.40;;;;;;;;;;5093956;28;20554;-74
2022/08/12 06:18:33;;;;;;;5.63;2.40;;;;;;;;;;5093963;28;20492;-74
2022/08/12 06:21:01;;;;;;;4.50;3.07;;;;;;;;;;5093843;28;20457;-74
2022/08/12 06:23:29;;;;;;;5.73;2.80;;;;;;;;;;5093512;28;20994;-74
2022/08/12 06:25:56;;;;;;;6.00;2.70;;;;;;;;;;5093771;28;20450;-74
2022/08/12 06:28:23;;;;;;;5.30;3.20;;;;;;;;;;5093693;28;20493;-74
2022/08/12 06:30:51;;;;;;;3.47;2.93;;;;;;;;;;5093775;28;20450;-74
2022/08/12 06:33:18;;;;;;;4.30;3.60;;;;;;;;;;5093681;28;20466;-74
2022/08/12 06:35:46;;;;;;;3.13;2.80;;;;;;;;;;5093449;28;20462;-74
2022/08/12 06:38:16;;;;;;;2.60;2.40;;;;;;;;;;5093563;28;20978;-74
2022/08/12 06:43:28;;;;;;;5.50;2.47;;;;;;;;;;5093125;28;20874;-74
2022/08/12 06:45:56;;;;;;;2.70;2.00;;;;;;;;;;5093542;28;20451;-74
2022/08/12 06:48:24;;;;;;;4.23;2.40;;;;;;;;;;5093205;28;20562;-74
2022/08/12 06:50:51;;;;;;;3.10;2.70;;;;;;;;;;5093537;28;20875;-74
2022/08/12 06:53:20;;;;;;;3.87;2.20;;;;;;;;;;5093380;28;20470;-74
2022/08/12 06:55:47;;;;;;;3.57;3.07;;;;;;;;;;5092920;28;20841;-74
2022/08/12 06:58:15;;;;;;;5.60;2.70;;;;;;;;;;5093351;28;20458;-74
2022/08/12 07:00:45;;;;;;;5.43;3.23;;;;;;;;;;5093323;28;20472;-74
2022/08/12 07:03:16;;;;;;;2.60;1.93;;;;;;;;;;5093079;28;20474;-74
2022/08/12 07:05:43;;;;;;;3.37;2.53;;;;;;;;;;5093146;28;20454;-74
2022/08/12 07:08:11;;;;;;;3.13;2.60;;;;;;;;;;5093163;28;20461;-74
2022/08/12 07:10:44;;;;;;;5.40;2.10;;;;;;;;;;5093299;28;20457;-74
2022/08/12 07:13:11;;;;;;;2.80;2.13;;;;;;;;;;5093085;28;20478;-74
2022/08/12 07:15:41;;;;;;;2.90;2.40;;;;;;;;;;5098514;28;20449;-74
2022/08/12 07:18:12;;;;;;;3.20;2.47;;;;;;;;;;5099865;28;20454;-74
2022/08/12 07:20:41;;;;;;;5.27;3.00;;;;;;;;;;5099932;28;20454;-74
2022/08/12 07:23:08;;;;;;;3.83;2.50;;;;;;;;;;5099664;28;20470;-74
2022/08/12 07:25:35;;;;;;;5.90;2.23;;;;;;;;;;5099450;28;20459;-74
2022/08/12 07:28:05;;;;;;;5.73;2.73;;;;;;;;;;5099729;28;20952;-74
2022/08/12 07:30:35;;;;;;;4.47;2.70;;;;;;;;;;5099217;28;20916;-74
2022/08/12 07:33:03;;;;;;;4.20;3.07;;;;;;;;;;5099730;28;20481;-74
2022/08/12 07:35:31;;;;;;;8.03;2.73;;;;;;;;;;5099412;28;20446;-74
2022/08/12 07:38:01;;;;;;;3.37;2.40;;;;;;;;;;5099831;28;20939;-74
2022/08/12 07:40:29;;;;;;;2.40;2.20;;;;;;;;;;5099461;28;20541;-74
2022/08/12 07:42:57;;;;;;;2.40;2.20;;;;;;;;;;5099654;28;20490;-74
2022/08/12 07:45:25;;;;;;;3.07;2.30;;;;;;;;;;5099314;28;20894;-74
2022/08/12 07:47:52;;;;;;;7.93;2.33;;;;;;;;;;5099539;28;20493;-74
2022/08/12 07:50:20;;;;;;;3.10;2.30;;;;;;;;;;5099482;28;20486;-74
2022/08/12 07:52:48;;;;;;;4.00;2.50;;;;;;;;;;5099690;28;20478;-74
2022/08/12 07:55:16;;;;;;;7.47;2.33;;;;;;;;;;5098754;28;20461;-74
2022/08/12 07:57:52;;;;;;;3.73;2.70;;;;;;;;;;5099558;28;20550;-74
2022/08/12 08:00:19;;;;;;;4.33;1.80;;;;;;;;;;5099544;28;20516;-74
2022/08/12 08:02:48;;;;;;;2.63;2.00;;;;;;;;;;5099432;28;20848;-74
2022/08/12 08:05:17;;;;;;;2.80;2.20;;;;;;;;;;5099165;28;20447;-75
2022/08/12 08:07:44;;;;;;;3.67;2.13;;;;;;;;;;5099303;28;20485;-75
2022/08/12 08:10:12;;;;;;;3.20;2.10;;;;;;;;;;5099383;28;20569;-74
2022/08/12 08:12:55;;;;;;;2.60;2.20;;;;;;;;;;5099429;28;20482;-74
2022/08/12 08:15:23;;;;;;;3.63;2.30;;;;;;;;;;5099170;28;20454;-74
2022/08/12 08:17:58;;;;;;;3.60;2.03;;;;;;;;;;5099468;28;20450;-74
2022/08/12 08:20:27;;;;;;;3.07;2.33;;;;;;;;;;5099245;28;20449;-74
2022/08/12 08:22:55;;;;;;;2.30;1.97;;;;;;;;;;5099260;28;20502;-74
2022/08/12 08:25:29;;;;;;;6.47;4.50;;;;;;;;;;5098630;28;20978;-75
2022/08/12 08:27:57;;;;;;;3.90;2.40;;;;;;;;;;5096374;28;20453;-75
2022/08/12 08:30:25;;;;;;;2.20;2.00;;;;;;;;;;5095499;28;20559;-74
2022/08/12 08:32:52;;;;;;;3.70;2.00;;;;;;;;;;5095946;28;20983;-74
2022/08/12 08:35:21;;;;;;;2.93;2.03;;;;;;;;;;5095681;28;20830;-74
2022/08/12 08:37:49;;;;;;;2.40;2.20;;;;;;;;;;5095922;28;20457;-74
2022/08/12 08:43:02;;;;;;;2.77;2.07;;;;;;;;;;5095689;28;20477;-74
2022/08/12 08:45:29;;;;;;;4.50;2.70;;;;;;;;;;5095782;28;20454;-74
2022/08/12 08:47:58;;;;;;;3.93;2.60;;;;;;;;;;5096003;28;20451;-74
2022/08/12 08:50:27;;;;;;;3.40;2.10;;;;;;;;;;5095565;28;20486;-74
2022/08/12 08:52:54;;;;;;;8.43;2.90;;;;;;;;;;5095511;28;20474;-74
2022/08/12 08:55:21;;;;;;;4.03;2.20;;;;;;;;;;5094918;28;20458;-74
2022/08/12 08:57:51;;;;;;;2.43;1.97;;;;;;;;;;5095530;28;20453;-74
2022/08/12 09:00:19;;;;;;;4.53;2.27;;;;;;;;;;5095446;28;20451;-75
2022/08/12 09:02:47;;;;;;;3.60;2.13;;;;;;;;;;5095357;28;20475;-75
2022/08/12 09:05:16;;;;;;;4.83;1.90;;;;;;;;;;5095096;28;20462;-74
2022/08/12 09:07:45;;;;;;;4.17;2.40;;;;;;;;;;5095409;28;20824;-74
2022/08/12 09:10:15;;;;;;;2.40;2.07;;;;;;;;;;5095105;28;20489;-74
2022/08/12 09:15:28;;;;;;;3.70;1.90;;;;;;;;;;5094983;28;20426;-75
2022/08/12 09:17:56;;;;;;;3.83;2.37;;;;;;;;;;5095092;28;20512;-75
2022/08/12 09:20:24;;;;;;;2.70;2.20;;;;;;;;;;5095013;28;20522;-75
2022/08/12 09:22:53;;;;;;;2.40;2.17;;;;;;;;;;5095132;28;20532;-75
2022/08/12 09:25:20;;;;;;;4.13;2.27;;;;;;;;;;5094650;28;20826;-75
2022/08/12 09:27:50;;;;;;;4.80;2.07;;;;;;;;;;5094930;28;20450;-75
2022/08/12 09:30:17;;;;;;;2.33;2.07;;;;;;;;;;5094908;28;20486;-75
2022/08/12 09:32:49;;;;;;;3.80;2.33;;;;;;;;;;5094630;28;20471;-74
2022/08/12 09:35:18;;;;;;;3.50;2.20;;;;;;;;;;5094530;28;20549;-75
2022/08/12 09:37:46;;;;;;;6.27;2.27;;;;;;;;;;5094385;28;20449;-75
2022/08/12 09:40:14;;;;;;;2.27;1.90;;;;;;;;;;5094781;28;20898;-75
2022/08/12 09:45:26;;;;;;;5.83;1.60;;;;;;;;;;5094451;28;20500;-75
2022/08/12 09:47:54;;;;;;;2.93;1.80;;;;;;;;;;5094496;28;20458;-75
2022/08/12 09:50:22;;;;;;;3.43;1.80;;;;;;;;;;5094267;28;20493;-75
2022/08/12 09:53:04;;;;;;;2.07;1.80;;;;;;;;;;5094637;28;20834;-74
2022/08/12 09:55:33;;;;;;;2.10;1.63;;;;;;;;;;5094014;28;20446;-75
2022/08/12 09:58:00;;;;;;;4.80;2.33;;;;;;;;;;5094523;28;20454;-75
2022/08/12 10:00:27;;;;;;;3.33;1.93;;;;;;;;;;5094110;28;20458;-75
2022/08/12 10:02:58;;;;;;;2.17;1.97;;;;;;;;;;5094312;28;20890;-75
2022/08/12 10:05:25;;;;;;;3.33;1.70;;;;;;;;;;5094015;28;20947;-75
2022/08/12 10:07:52;;;;;;;4.60;1.73;;;;;;;;;;5094155;28;20938;-75
2022/08/12 10:10:20;;;;;;;2.17;1.60;;;;;;;;;;5094020;28;20482;-75
2022/08/12 10:15:34;;;;;;;2.10;1.90;;;;;;;;;;5093885;28;20422;-75
2022/08/12 10:18:01;;;;;;;2.00;1.80;;;;;;;;;;5094085;28;20459;-75
2022/08/12 10:20:28;;;;;;;6.77;1.60;;;;;;;;;;5093889;28;20446;-75
2022/08/12 10:22:58;;;;;;;5.13;2.07;;;;;;;;;;5093882;28;20471;-75
2022/08/12 10:30:57;;;;;;;2.23;1.67;;;;;;;;;;5093825;28;20477;-75
2022/08/12 10:33:24;;;;;;;1.60;1.40;;;;;;;;;;5093528;28;20909;-75
2022/08/12 10:35:52;;;;;;;4.80;1.80;;;;;;;;;;5093384;28;20454;-75
2022/08/12 10:38:19;;;;;;;5.10;1.93;;;;;;;;;;5093595;28;20454;-75
2022/08/12 10:43:45;;;;;;;2.80;1.70;;;;;;;;;;5093214;28;20549;-75
2022/08/12 10:46:16;;;;;;;4.33;1.73;;;;;;;;;;5093492;28;20482;-75
2022/08/12 10:48:46;;;;;;;1.73;1.60;;;;;;;;;;5092988;28;20459;-75
2022/08/12 10:51:17;;;;;;;2.60;1.60;;;;;;;;;;5093312;28;20574;-75
2022/08/12 10:53:45;;;;;;;3.10;1.80;;;;;;;;;;5093112;28;20474;-75
2022/08/12 10:56:12;;;;;;;2.67;2.20;;;;;;;;;;5092880;28;20458;-75
2022/08/12 10:58:40;;;;;;;2.70;1.73;;;;;;;;;;5093472;28;20838;-75
2022/08/12 11:01:09;;;;;;;2.43;1.80;;;;;;;;;;5093593;28;20819;-75
2022/08/12 11:03:36;;;;;;;2.33;1.80;;;;;;;;;;5093093;28;20479;-75
2022/08/12 11:06:04;;;;;;;2.53;2.20;;;;;;;;;;5093171;28;20484;-75
2022/08/12 11:08:32;;;;;;;1.70;1.40;;;;;;;;;;5093181;28;20457;-75
2022/08/12 11:10:59;;;;;;;6.13;1.80;;;;;;;;;;5093026;28;20528;-75
2022/08/12 11:13:26;;;;;;;2.80;2.10;;;;;;;;;;5093059;28;20888;-75
2022/08/12 11:15:54;;;;;;;1.83;1.50;;;;;;;;;;5093220;28;20939;-75
2022/08/12 11:18:22;;;;;;;3.43;1.70;;;;;;;;;;5093182;28;20466;-75
2022/08/12 11:20:50;;;;;;;5.23;1.53;;;;;;;;;;5093072;28;20451;-74
2022/08/12 11:23:18;;;;;;;1.90;1.60;;;;;;;;;;5092821;28;20478;-74
2022/08/12 11:25:45;;;;;;;1.90;1.50;;;;;;;;;;5092894;28;20455;-74
2022/08/12 11:28:12;;;;;;;2.57;1.60;;;;;;;;;;5092861;28;20461;-74
2022/08/12 11:30:39;;;;;;;2.50;1.47;;;;;;;;;;5092869;28;20999;-74
2022/08/12 11:33:08;;;;;;;3.60;1.60;;;;;;;;;;5092850;28;20470;-74
2022/08/12 11:35:37;;;;;;;2.93;1.47;;;;;;;;;;5092740;28;20447;-74
2022/08/12 11:38:05;;;;;;;2.37;1.37;;;;;;;;;;5092991;28;20821;-75
2022/08/12 11:40:32;;;;;;;1.90;1.50;;;;;;;;;;5092878;28;20466;-74
2022/08/12 11:43:00;;;;;;;2.43;1.60;;;;;;;;;;5092913;28;20485;-75
2022/08/12 11:45:27;;;;;;;2.00;1.50;;;;;;;;;;5092608;28;20447;-75
2022/08/12 11:47:55;;;;;;;2.37;1.50;;;;;;;;;;5092782;28;20451;-74
2022/08/12 11:50:24;;;;;;;2.37;1.30;;;;;;;;;;5092496;28;20489;-75
2022/08/12 11:52:51;;;;;;;1.83;1.20;;;;;;;;;;5092802;28;20994;-75
2022/08/12 11:55:18;;;;;;;2.43;1.40;;;;;;;;;;5092101;28;20971;-75
2022/08/12 11:57:49;;;;;;;3.80;1.70;;;;;;;;;;5092835;28;20822;-75
2022/08/12 12:00:17;;;;;;;1.83;1.53;;;;;;;;;;5093282;28;20939;-75
2022/08/12 12:02:44;;;;;;;1.70;1.37;;;;;;;;;;5096638;28;20462;-74
2022/08/12 12:05:13;;;;;;;2.33;1.27;;;;;;;;;;5096259;28;20454;-75
2022/08/12 12:07:42;;;;;;;1.67;1.23;;;;;;;;;;5096519;28;20523;-75
2022/08/12 12:10:10;;;;;;;1.83;1.40;;;;;;;;;;5096314;28;20493;-75
2022/08/12 12:12:37;;;;;;;3.13;1.60;;;;;;;;;;5096671;28;20474;-75
2022/08/12 12:15:05;;;;;;;5.13;1.50;;;;;;;;;;5096221;28;20458;-74
2022/08/12 12:17:35;;;;;;;2.13;1.33;;;;;;;;;;5096209;28;20947;-75
2022/08/12 12:20:02;;;;;;;1.80;1.40;;;;;;;;;;5096250;28;20488;-75
2022/08/12 12:22:29;;;;;;;3.70;1.57;;;;;;;;;;5096260;28;20483;-74
2022/08/12 12:24:58;;;;;;;2.57;1.67;;;;;;;;;;5095956;28;20454;-75
2022/08/12 12:27:25;;;;;;;3.80;1.60;;;;;;;;;;5096007;28;20457;-75
2022/08/12 12:29:52;;;;;;;2.70;1.90;;;;;;;;;;5096092;28;20442;-74
2022/08/12 12:32:19;;;;;;;4.00;1.57;;;;;;;;;;5095865;28;20452;-74
2022/08/12 12:34:46;;;;;;;2.47;1.50;;;;;;;;;;5095928;28;20447;-75
2022/08/12 12:37:14;;;;;;;3.00;1.73;;;;;;;;;;5095960;28;20504;-74
2022/08/12 12:39:42;;;;;;;3.20;1.80;;;;;;;;;;5095898;28;20884;-74
2022/08/12 12:42:10;;;;;;;2.07;1.50;;;;;;;;;;5095731;28;20500;-74
2022/08/12 12:44:37;;;;;;;6.20;1.90;;;;;;;;;;5095269;28;20471;-74
2022/08/12 12:47:04;;;;;;;2.10;1.70;;;;;;;;;;5095712;28;20461;-74
2022/08/12 12:49:32;;;;;;;2.97;1.73;;;;;;;;;;5095640;28;20498;-74
2022/08/12 12:51:59;;;;;;;1.80;1.40;;;;;;;;;;5095834;28;20509;-74
2022/08/12 12:54:26;;;;;;;4.20;1.70;;;;;;;;;;5095232;28;20479;-75
2022/08/12 12:56:53;;;;;;;2.47;1.70;;;;;;;;;;5094935;28;20449;-75
2022/08/12 12:59:22;;;;;;;3.30;1.70;;;;;;;;;;5095331;28;20446;-74
2022/08/12 13:01:50;;;;;;;2.07;1.63;;;;;;;;;;5095626;28;20830;-74
2022/08/12 13:04:17;;;;;;;2.23;1.80;;;;;;;;;;5095011;28;20475;-74
2022/08/12 13:06:50;;;;;;;2.27;1.50;;;;;;;;;;5095328;28;20507;-74
2022/08/12 13:09:18;;;;;;;3.07;1.70;;;;;;;;;;5095279;28;20462;-74
2022/08/12 13:11:47;;;;;;;3.53;1.63;;;;;;;;;;5094576;28;20493;-75
2022/08/12 13:14:16;;;;;;;2.57;1.90;;;;;;;;;;5094676;28;20983;-74
2022/08/12 13:16:45;;;;;;;2.00;1.27;;;;;;;;;;5095232;28;20941;-74
2022/08/12 13:19:12;;;;;;;5.77;1.70;;;;;;;;;;5095100;28;20970;-74
2022/08/12 13:22:14;;;;;;;3.43;2.03;;;;;;;;;;5094983;28;20838;-75
2022/08/12 13:24:26;;;;;;;2.23;2.03;;;;;;;;;;5094359;28;20524;-75
2022/08/12 13:26:53;;;;;;;3.90;1.60;;;;;;;;;;5095049;28;20446;-74
2022/08/12 13:29:20;;;;;;;3.10;1.70;;;;;;;;;;5094723;28;20455;-74
2022/08/12 13:31:54;;;;;;;2.67;1.40;;;;;;;;;;5094854;28;20482;-75
2022/08/12 13:34:23;;;;;;;2.00;1.50;;;;;;;;;;5094398;28;20478;-74
2022/08/12 13:36:50;;;;;;;4.90;1.70;;;;;;;;;;5094780;28;20962;-74
2022/08/12 13:39:20;;;;;;;5.10;1.60;;;;;;;;;;5094773;28;20548;-74
2022/08/12 13:41:47;;;;;;;1.90;1.40;;;;;;;;;;5094703;28;20447;-74
2022/08/12 13:44:14;;;;;;;4.53;1.40;;;;;;;;;;5094124;28;20479;-74
2022/08/12 13:46:41;;;;;;;2.00;1.50;;;;;;;;;;5094754;28;20486;-75
2022/08/12 13:49:12;;;;;;;3.50;1.60;;;;;;;;;;5094451;28;20451;-74
2022/08/12 13:51:41;;;;;;;1.60;1.40;;;;;;;;;;5094358;28;21068;-74
2022/08/12 13:54:08;;;;;;;1.80;1.30;;;;;;;;;;5094250;28;20475;-74
2022/08/12 13:56:37;;;;;;;1.83;1.40;;;;;;;;;;5093924;28;20467;-74
2022/08/12 13:59:06;;;;;;;2.43;1.60;;;;;;;;;;5094399;28;20447;-74
2022/08/12 14:01:34;;;;;;;1.50;1.10;;;;;;;;;;5094143;28;20533;-74
2022/08/12 14:04:03;;;;;;;2.60;1.30;;;;;;;;;;5093961;28;20466;-74
2022/08/12 14:06:32;;;;;;;1.60;1.40;;;;;;;;;;5094107;28;20492;-74
2022/08/12 14:08:59;;;;;;;1.80;1.50;;;;;;;;;;5094149;28;20470;-74
2022/08/12 14:11:27;;;;;;;5.70;2.10;;;;;;;;;;5093996;28;20859;-74
2022/08/12 14:13:56;;;;;;;1.70;1.50;;;;;;;;;;5093943;28;20843;-74
2022/08/12 14:16:23;;;;;;;1.77;1.20;;;;;;;;;;5094073;28;20451;-74
2022/08/12 14:18:51;;;;;;;10.30;2.87;;;;;;;;;;5094110;28;20461;-74
2022/08/12 14:21:19;;;;;;;2.57;1.73;;;;;;;;;;5093839;28;20449;-74
2022/08/12 14:23:51;;;;;;;2.27;1.70;;;;;;;;;;5093418;28;20565;-74
2022/08/12 14:26:20;;;;;;;6.70;3.43;;;;;;;;;;5094044;28;21020;-74
2022/08/12 14:28:48;;;;;;;7.53;1.83;;;;;;;;;;5093865;28;20457;-75
2022/08/12 14:31:16;;;;;;;3.37;1.80;;;;;;;;;;5093730;28;20516;-74
2022/08/12 14:33:46;;;;;;;5.40;1.70;;;;;;;;;;5093517;28;20479;-74
2022/08/12 14:36:13;;;;;;;8.37;1.70;;;;;;;;;;5094217;28;20924;-74
2022/08/12 14:38:42;;;;;;;2.77;2.17;;;;;;;;;;5093666;28;20453;-74
2022/08/12 14:41:12;;;;;;;3.00;1.50;;;;;;;;;;5093585;28;20449;-74
2022/08/12 14:43:39;;;;;;;8.37;2.30;;;;;;;;;;5093014;28;20927;-74
2022/08/12 14:46:07;;;;;;;9.10;4.17;;;;;;;;;;5093584;28;20948;-74
2022/08/12 14:48:34;;;;;;;5.17;2.10;;;;;;;;;;5093353;28;20843;-74
2022/08/12 14:51:01;;;;;;;8.13;3.30;;;;;;;;;;5093453;28;21020;-74
2022/08/12 14:53:29;;;;;;;3.93;2.00;;;;;;;;;;5093006;28;20493;-75
2022/08/12 14:55:56;;;;;;;1.80;1.60;;;;;;;;;;5092981;28;20450;-74
2022/08/12 14:58:25;;;;;;;5.50;2.10;;;;;;;;;;5093296;28;20455;-74
2022/08/12 15:03:37;;;;;;;7.37;2.60;;;;;;;;;;5093005;28;20500;-74
2022/08/12 15:06:06;;;;;;;20.57;3.80;;;;;;;;;;5093137;28;20812;-74
2022/08/12 15:08:34;;;;;;;2.33;1.73;;;;;;;;;;5093148;28;20446;-74
2022/08/12 15:11:02;;;;;;;1.63;1.50;;;;;;;;;;5093129;28;20482;-74
2022/08/12 15:13:31;;;;;;;2.23;1.60;;;;;;;;;;5092898;28;20470;-74
2022/08/12 15:16:00;;;;;;;2.37;1.97;;;;;;;;;;5092990;28;20454;-74
2022/08/12 15:18:28;;;;;;;6.97;2.03;;;;;;;;;;5093032;28;20459;-74
2022/08/12 15:20:56;;;;;;;14.23;4.60;;;;;;;;;;5093160;28;20951;-74
2022/08/12 15:23:24;;;;;;;8.13;2.47;;;;;;;;;;5092843;28;20975;-74
2022/08/12 15:25:52;;;;;;;7.50;2.00;;;;;;;;;;5092929;28;20442;-74
2022/08/12 15:28:21;;;;;;;2.00;1.60;;;;;;;;;;5092937;28;20448;-74
2022/08/12 15:30:51;;;;;;;4.33;1.87;;;;;;;;;;5092985;28;20442;-74
2022/08/12 15:33:19;;;;;;;3.93;2.23;;;;;;;;;;5092837;28;20473;-74
2022/08/12 15:35:46;;;;;;;2.10;1.90;;;;;;;;;;5094106;28;20546;-74
2022/08/12 15:38:14;;;;;;;1.90;1.70;;;;;;;;;;5097059;28;20451;-76
2022/08/12 15:40:43;;;;;;;2.20;1.90;;;;;;;;;;5097273;28;20507;-74
2022/08/12 15:43:14;;;;;;;2.70;2.10;;;;;;;;;;5096753;28;20518;-74
2022/08/12 15:45:42;;;;;;;3.30;2.33;;;;;;;;;;5096788;28;21020;-74
2022/08/12 15:48:11;;;;;;;1.90;1.70;;;;;;;;;;5096907;28;20450;-74
2022/08/12 15:50:38;;;;;;;6.00;1.80;;;;;;;;;;5096887;28;20446;-74
2022/08/12 15:53:06;;;;;;;2.07;1.60;;;;;;;;;;5096727;28;20509;-75
2022/08/12 15:55:33;;;;;;;2.53;1.70;;;;;;;;;;5095881;28;20450;-75
2022/08/12 15:58:01;;;;;;;3.40;1.70;;;;;;;;;;5096775;28;20458;-75
2022/08/12 16:00:29;;;;;;;2.60;1.70;;;;;;;;;;5096401;28;20482;-75
2022/08/12 16:02:57;;;;;;;1.87;1.67;;;;;;;;;;5096382;28;20478;-75
2022/08/12 16:05:26;;;;;;;2.83;1.83;;;;;;;;;;5096146;28;20454;-75
2022/08/12 16:07:54;;;;;;;3.17;2.10;;;;;;;;;;5096477;28;20504;-75
2022/08/12 16:10:22;;;;;;;7.00;3.90;;;;;;;;;;5096430;28;20458;-75
2022/08/12 16:12:50;;;;;;;8.73;2.23;;;;;;;;;;5096239;28;20502;-75
2022/08/12 16:15:18;;;;;;;2.43;1.80;;;;;;;;;;5096018;28;20453;-75
2022/08/12 16:17:46;;;;;;;4.90;4.27;;;;;;;;;;5096366;28;20447;-75
2022/08/12 16:20:20;;;;;;;2.10;1.90;;;;;;;;;;5096247;28;20456;-75
2022/08/12 16:22:50;;;;;;;2.53;2.07;;;;;;;;;;5096336;28;20463;-75
2022/08/12 16:25:19;;;;;;;2.87;2.00;;;;;;;;;;5095895;28;20457;-75
2022/08/12 16:27:50;;;;;;;6.27;1.90;;;;;;;;;;5096139;28;20458;-75
2022/08/12 16:30:17;;;;;;;5.10;2.07;;;;;;;;;;5096098;28;20462;-75
2022/08/12 16:32:44;;;;;;;4.27;2.10;;;;;;;;;;5095998;28;20873;-75
2022/08/12 16:35:11;;;;;;;2.00;1.70;;;;;;;;;;5095831;28;20458;-75
2022/08/12 16:37:39;;;;;;;2.57;1.70;;;;;;;;;;5095907;28;21015;-75
2022/08/12 16:40:09;;;;;;;2.63;2.20;;;;;;;;;;5095920;28;20459;-75